Time,TemperatureF,DewpointF,PressureIn,WindDirection,WindDirectionDegrees,WindSpeedMPH,WindSpeedGustMPH,Humidity,HourlyPrecipIn,Conditions,Clouds,dailyrainin,SoftwareType,DateUTC
2013-05-31 00:02:00,70.2,54.2,30.11,East,90,0.0,0.0,57,0.00,,,0.00,WUHU21423XXSP,2013-05-31 04:02:00,
2013-05-31 00:04:00,70.3,54.4,30.11,WNW,292,0.0,0.0,57,0.00,,,0.00,WUHU21423XXSP,2013-05-31 04:04:00,
2013-05-31 00:11:00,70.9,54.9,30.11,WNW,292,0.0,0.0,57,0.00,,,0.00,WUHU21423XXSP,2013-05-31 04:11:00,
2013-05-31 00:13:00,70.7,54.7,30.11,WNW,292,0.0,0.0,57,0.00,,,0.00,WUHU21423XXSP,2013-05-31 04:13:00,
2013-05-31 00:15:00,70.7,54.7,30.11,WNW,292,0.0,0.0,57,0.00,,,0.00,WUHU21423XXSP,2013-05-31 04:15:00,
2013-05-31 00:21:00,70.3,54.4,30.11,WNW,292,0.0,0.0,57,0.00,,,0.00,WUHU21423XXSP,2013-05-31 04:21:00,
2013-05-31 00:28:00,70.2,54.2,30.11,WNW,292,0.0,0.0,57,0.00,,,0.00,WUHU21423XXSP,2013-05-31 04:28:00,
2013-05-31 00:34:00,70.0,54.0,30.11,WNW,292,0.0,0.0,57,0.00,,,0.00,WUHU21423XXSP,2013-05-31 04:34:00,
2013-05-31 00:41:00,70.0,53.9,30.10,WNW,292,0.0,0.0,57,0.00,,,0.00,WUHU21423XXSP,2013-05-31 04:41:00,
2013-05-31 00:47:00,69.6,53.7,30.10,WNW,292,0.0,0.0,57,0.00,,,0.00,WUHU21423XXSP,2013-05-31 04:47:00,
2013-05-31 00:54:00,69.4,53.5,30.11,WNW,292,0.0,0.0,57,0.00,,,0.00,WUHU21423XXSP,2013-05-31 04:54:00,
2013-05-31 01:10:00,68.9,52.5,30.11,WNW,292,0.0,0.0,56,0.00,,,0.00,WUHU21423XXSP,2013-05-31 05:10:00,
2013-05-31 01:15:00,68.5,51.7,30.11,WNW,292,0.0,0.0,55,0.00,,,0.00,WUHU21423XXSP,2013-05-31 05:15:00,
2013-05-31 01:21:00,68.2,51.5,30.11,WNW,292,0.0,0.0,55,0.00,,,0.00,WUHU21423XXSP,2013-05-31 05:21:00,
2013-05-31 01:28:00,68.2,51.3,30.11,WNW,292,0.0,0.0,55,0.00,,,0.00,WUHU21423XXSP,2013-05-31 05:28:00,
2013-05-31 01:34:00,67.6,50.4,30.11,WNW,292,0.0,0.0,54,0.00,,,0.00,WUHU21423XXSP,2013-05-31 05:34:00,
2013-05-31 01:41:00,67.3,50.0,30.11,WNW,292,0.0,0.0,54,0.00,,,0.00,WUHU21423XXSP,2013-05-31 05:41:00,
2013-05-31 01:47:00,66.9,49.9,30.11,WNW,292,0.0,0.0,54,0.00,,,0.00,WUHU21423XXSP,2013-05-31 05:47:00,
2013-05-31 01:54:00,66.2,49.4,30.11,WNW,292,0.0,0.0,54,0.00,,,0.00,WUHU21423XXSP,2013-05-31 05:54:00,
2013-05-31 02:01:00,65.8,47.7,30.11,WNW,292,0.0,0.0,52,0.00,,,0.00,WUHU21423XXSP,2013-05-31 06:01:00,
2013-05-31 02:06:00,64.9,46.5,30.11,WNW,292,0.0,0.0,51,0.00,,,0.00,WUHU21423XXSP,2013-05-31 06:06:00,
2013-05-31 02:13:00,64.6,46.0,30.12,WNW,292,0.0,0.0,51,0.00,,,0.00,WUHU21423XXSP,2013-05-31 06:13:00,
2013-05-31 02:19:00,64.0,45.2,30.11,WNW,292,0.0,0.0,50,0.00,,,0.00,WUHU21423XXSP,2013-05-31 06:19:00,
2013-05-31 02:26:00,63.7,44.7,30.11,WNW,292,0.0,0.0,48,0.00,,,0.00,WUHU21423XXSP,2013-05-31 06:26:00,
2013-05-31 02:32:00,63.3,42.6,30.11,WNW,292,0.0,0.0,47,0.00,,,0.00,WUHU21423XXSP,2013-05-31 06:32:00,
2013-05-31 02:39:00,63.1,41.3,30.11,WNW,292,0.0,0.0,45,0.00,,,0.00,WUHU21423XXSP,2013-05-31 06:39:00,
2013-05-31 02:45:00,62.8,41.1,30.11,WNW,292,0.0,0.0,45,0.00,,,0.00,WUHU21423XXSP,2013-05-31 06:45:00,
2013-05-31 02:51:00,62.4,40.7,30.11,WNW,292,0.0,0.0,45,0.00,,,0.00,WUHU21423XXSP,2013-05-31 06:51:00,
2013-05-31 02:58:00,61.9,39.9,30.11,WNW,292,0.0,0.0,44,0.00,,,0.00,WUHU21423XXSP,2013-05-31 06:58:00,
2013-05-31 03:03:00,61.9,39.0,30.11,ENE,67,0.0,0.0,43,0.00,,,0.00,WUHU21423XXSP,2013-05-31 07:03:00,
2013-05-31 03:08:00,61.9,38.4,30.11,ENE,67,0.0,0.0,42,0.00,,,0.00,WUHU21423XXSP,2013-05-31 07:08:00,
2013-05-31 03:15:00,61.5,38.1,30.10,WSW,247,0.0,0.0,42,0.00,,,0.00,WUHU21423XXSP,2013-05-31 07:15:00,
2013-05-31 03:21:00,61.5,37.5,30.11,WSW,247,0.0,0.0,41,0.00,,,0.00,WUHU21423XXSP,2013-05-31 07:21:00,
2013-05-31 03:28:00,61.2,37.2,30.10,WSW,247,0.0,0.0,41,0.00,,,0.00,WUHU21423XXSP,2013-05-31 07:28:00,
2013-05-31 03:34:00,60.8,36.3,30.11,WSW,247,0.0,0.0,40,0.00,,,0.00,WUHU21423XXSP,2013-05-31 07:34:00,
2013-05-31 03:41:00,60.6,36.2,30.11,WSW,247,0.0,0.0,40,0.00,,,0.00,WUHU21423XXSP,2013-05-31 07:41:00,
2013-05-31 03:47:00,60.6,35.4,30.11,WSW,247,0.0,0.0,39,0.00,,,0.00,WUHU21423XXSP,2013-05-31 07:47:00,
2013-05-31 03:53:00,60.4,35.3,30.11,WSW,247,0.0,0.0,39,0.00,,,0.00,WUHU21423XXSP,2013-05-31 07:53:00,
2013-05-31 04:06:00,60.1,35.0,30.12,WSW,247,0.0,0.0,39,0.00,,,0.00,WUHU21423XXSP,2013-05-31 08:06:00,
2013-05-31 04:13:00,59.9,34.1,30.12,WSW,247,0.0,0.0,38,0.00,,,0.00,WUHU21423XXSP,2013-05-31 08:13:00,
2013-05-31 04:19:00,59.5,33.8,30.12,WSW,247,0.0,0.0,38,0.00,,,0.00,WUHU21423XXSP,2013-05-31 08:19:00,
2013-05-31 04:26:00,59.5,33.1,30.12,WSW,247,0.0,0.0,37,0.00,,,0.00,WUHU21423XXSP,2013-05-31 08:26:00,
2013-05-31 04:32:00,59.2,32.7,30.11,WSW,247,0.0,0.0,37,0.00,,,0.00,WUHU21423XXSP,2013-05-31 08:32:00,
2013-05-31 04:38:00,59.2,32.7,30.11,WSW,247,0.0,0.0,37,0.00,,,0.00,WUHU21423XXSP,2013-05-31 08:38:00,
2013-05-31 04:45:00,59.2,32.0,30.11,WSW,247,0.0,0.0,36,0.00,,,0.00,WUHU21423XXSP,2013-05-31 08:45:00,
2013-05-31 04:51:00,58.8,31.7,30.11,WSW,247,0.0,0.0,36,0.00,,,0.00,WUHU21423XXSP,2013-05-31 08:51:00,
2013-05-31 04:58:00,58.8,31.7,30.11,WSW,247,0.0,0.0,36,0.00,,,0.00,WUHU21423XXSP,2013-05-31 08:58:00,
2013-05-31 05:04:00,58.8,31.7,30.11,WSW,247,0.0,0.0,36,0.00,,,0.00,WUHU21423XXSP,2013-05-31 09:04:00,
2013-05-31 05:11:00,58.8,31.7,30.12,WSW,247,0.0,0.0,36,0.00,,,0.00,WUHU21423XXSP,2013-05-31 09:11:00,
2013-05-31 05:17:00,58.6,31.6,30.11,WSW,247,0.0,0.0,36,0.00,,,0.00,WUHU21423XXSP,2013-05-31 09:17:00,
2013-05-31 05:23:00,58.3,30.5,30.12,WSW,247,0.0,0.0,35,0.00,,,0.00,WUHU21423XXSP,2013-05-31 09:23:00,
2013-05-31 05:30:00,58.1,30.4,30.12,WSW,247,0.0,0.0,35,0.00,,,0.00,WUHU21423XXSP,2013-05-31 09:30:00,
2013-05-31 05:36:00,58.1,30.4,30.12,WSW,247,0.0,0.0,35,0.00,,,0.00,WUHU21423XXSP,2013-05-31 09:36:00,
2013-05-31 05:43:00,57.9,30.2,30.12,WSW,247,0.0,0.0,35,0.00,,,0.00,WUHU21423XXSP,2013-05-31 09:43:00,
2013-05-31 05:49:00,57.9,30.2,30.12,WSW,247,0.0,0.0,35,0.00,,,0.00,WUHU21423XXSP,2013-05-31 09:49:00,
2013-05-31 05:56:00,57.7,30.1,30.12,WSW,247,0.0,0.0,35,0.00,,,0.00,WUHU21423XXSP,2013-05-31 09:56:00,
2013-05-31 06:01:00,57.6,29.9,30.12,WSW,247,0.0,0.0,35,0.00,,,0.00,WUHU21423XXSP,2013-05-31 10:01:00,
2013-05-31 06:06:00,57.4,29.7,30.12,WSW,247,0.0,0.0,35,0.00,,,0.00,WUHU21423XXSP,2013-05-31 10:06:00,
2013-05-31 06:13:00,57.6,29.0,30.12,WSW,247,0.0,0.0,34,0.00,,,0.00,WUHU21423XXSP,2013-05-31 10:13:00,
2013-05-31 06:19:00,57.9,29.4,30.12,WSW,247,0.0,0.0,34,0.00,,,0.00,WUHU21423XXSP,2013-05-31 10:19:00,
2013-05-31 06:25:00,58.8,30.3,30.12,WSW,247,0.0,0.0,34,0.00,,,0.00,WUHU21423XXSP,2013-05-31 10:25:00,
2013-05-31 06:32:00,58.5,30.0,30.12,WSW,247,0.0,0.0,34,0.00,,,0.00,WUHU21423XXSP,2013-05-31 10:32:00,
2013-05-31 06:38:00,58.6,29.5,30.12,WSW,247,0.0,0.0,33,0.00,,,0.00,WUHU21423XXSP,2013-05-31 10:38:00,
2013-05-31 06:45:00,58.6,29.5,30.11,WSW,247,0.0,0.0,33,0.00,,,0.00,WUHU21423XXSP,2013-05-31 10:45:00,
2013-05-31 06:51:00,58.8,29.6,30.12,WSW,247,0.0,0.0,33,0.00,,,0.00,WUHU21423XXSP,2013-05-31 10:51:00,
2013-05-31 06:58:00,58.8,29.6,30.12,WSW,247,0.0,0.0,33,0.00,,,0.00,WUHU21423XXSP,2013-05-31 10:58:00,
2013-05-31 07:03:00,59.2,29.2,30.12,WSW,247,0.0,0.0,32,0.00,,,0.00,WUHU21423XXSP,2013-05-31 11:03:00,
2013-05-31 07:08:00,59.9,29.1,30.11,WSW,247,0.0,0.0,31,0.00,,,0.00,WUHU21423XXSP,2013-05-31 11:08:00,
2013-05-31 07:15:00,60.6,29.7,30.12,WSW,247,0.0,0.0,31,0.00,,,0.00,WUHU21423XXSP,2013-05-31 11:15:00,
2013-05-31 07:21:00,61.3,29.4,30.12,WSW,247,0.0,0.0,30,0.00,,,0.00,WUHU21423XXSP,2013-05-31 11:21:00,
2013-05-31 07:28:00,61.9,29.9,30.12,WSW,247,0.0,0.0,30,0.00,,,0.00,WUHU21423XXSP,2013-05-31 11:28:00,
2013-05-31 07:34:00,62.8,30.6,30.12,WSW,247,0.0,0.0,30,0.00,,,0.00,WUHU21423XXSP,2013-05-31 11:34:00,
2013-05-31 07:40:00,63.7,32.4,30.12,WSW,247,0.0,0.0,31,0.00,,,0.00,WUHU21423XXSP,2013-05-31 11:40:00,
2013-05-31 07:47:00,64.8,32.9,30.12,WSW,247,0.0,0.0,31,0.00,,,0.00,WUHU21423XXSP,2013-05-31 11:47:00,
2013-05-31 07:53:00,66.0,34.5,30.12,WSW,247,0.0,0.0,31,0.00,,,0.00,WUHU21423XXSP,2013-05-31 11:53:00,
2013-05-31 08:00:00,66.7,35.1,30.12,WSW,247,0.0,0.0,31,0.00,,,0.00,WUHU21423XXSP,2013-05-31 12:00:00,
2013-05-31 08:06:00,67.8,38.1,30.12,WSW,247,0.0,0.0,34,0.00,,,0.00,WUHU21423XXSP,2013-05-31 12:06:00,
2013-05-31 08:13:00,68.9,45.4,30.12,WSW,247,0.0,0.0,43,0.00,,,0.00,WUHU21423XXSP,2013-05-31 12:13:00,
2013-05-31 08:19:00,70.2,47.1,30.13,West,270,0.0,0.0,44,0.00,,,0.00,WUHU21423XXSP,2013-05-31 12:19:00,
2013-05-31 08:25:00,70.7,49.4,30.12,West,270,0.0,0.0,48,0.00,,,0.00,WUHU21423XXSP,2013-05-31 12:25:00,
2013-05-31 08:32:00,71.4,50.6,30.12,West,270,0.0,0.0,48,0.00,,,0.00,WUHU21423XXSP,2013-05-31 12:32:00,
2013-05-31 08:38:00,73.4,53.1,30.12,West,270,0.0,0.0,50,0.00,,,0.00,WUHU21423XXSP,2013-05-31 12:38:00,
2013-05-31 08:45:00,74.8,57.1,30.12,SSW,202,0.0,0.0,54,0.00,,,0.00,WUHU21423XXSP,2013-05-31 12:45:00,
2013-05-31 08:51:00,75.7,58.6,30.12,South,180,0.0,0.0,55,0.00,,,0.00,WUHU21423XXSP,2013-05-31 12:51:00,
2013-05-31 08:58:00,77.4,60.9,30.12,South,180,0.0,0.0,57,0.00,,,0.00,WUHU21423XXSP,2013-05-31 12:58:00,
2013-05-31 09:04:00,78.3,62.6,30.12,SSE,157,0.0,0.0,59,0.00,,,0.00,WUHU21423XXSP,2013-05-31 13:04:00,
2013-05-31 09:10:00,79.7,64.7,30.12,SSE,157,0.0,0.0,60,0.00,,,0.00,WUHU21423XXSP,2013-05-31 13:10:00,
2013-05-31 09:17:00,80.4,65.3,30.12,WSW,247,0.0,0.0,60,0.00,,,0.00,WUHU21423XXSP,2013-05-31 13:17:00,
2013-05-31 09:23:00,81.1,66.4,30.12,SSE,157,0.0,0.0,61,0.00,,,0.00,WUHU21423XXSP,2013-05-31 13:23:00,
2013-05-31 09:30:00,81.3,67.0,30.12,SE,135,0.0,0.0,62,0.00,,,0.00,WUHU21423XXSP,2013-05-31 13:30:00,
2013-05-31 09:36:00,81.7,67.4,30.12,SSE,157,0.0,0.0,62,0.00,,,0.00,WUHU21423XXSP,2013-05-31 13:36:00,
2013-05-31 09:42:00,82.2,67.8,30.11,SSW,202,0.0,0.0,62,0.00,,,0.00,WUHU21423XXSP,2013-05-31 13:42:00,
2013-05-31 09:49:00,82.8,68.4,30.11,ESE,112,0.0,0.0,62,0.00,,,0.00,WUHU21423XXSP,2013-05-31 13:49:00,
2013-05-31 09:55:00,83.3,68.5,30.10,ENE,67,0.0,0.0,62,0.00,,,0.00,WUHU21423XXSP,2013-05-31 13:55:00,
2013-05-31 10:02:00,83.7,69.3,30.11,WSW,247,0.0,0.0,62,0.00,,,0.00,WUHU21423XXSP,2013-05-31 14:02:00,
2013-05-31 10:08:00,83.7,69.3,30.10,SSW,202,0.0,0.0,62,0.00,,,0.00,WUHU21423XXSP,2013-05-31 14:08:00,
2013-05-31 10:15:00,83.8,69.4,30.10,SSE,157,0.0,0.0,62,0.00,,,0.00,WUHU21423XXSP,2013-05-31 14:15:00,
2013-05-31 10:21:00,83.8,69.4,30.10,North,0,0.0,0.0,62,0.00,,,0.00,WUHU21423XXSP,2013-05-31 14:21:00,
2013-05-31 10:28:00,84.6,70.1,30.10,SE,135,0.0,0.0,62,0.00,,,0.00,WUHU21423XXSP,2013-05-31 14:28:00,
2013-05-31 10:34:00,85.3,70.3,30.10,SSW,202,0.0,0.0,61,0.00,,,0.00,WUHU21423XXSP,2013-05-31 14:34:00,
2013-05-31 10:40:00,85.6,70.6,30.10,SSW,202,0.0,0.0,61,0.00,,,0.00,WUHU21423XXSP,2013-05-31 14:40:00,
2013-05-31 10:47:00,85.6,69.7,30.11,NNW,337,0.0,0.0,59,0.00,,,0.00,WUHU21423XXSP,2013-05-31 14:47:00,
2013-05-31 10:53:00,86.2,70.7,30.11,NW,315,0.0,0.0,60,0.00,,,0.00,WUHU21423XXSP,2013-05-31 14:53:00,
2013-05-31 11:00:00,85.5,70.2,30.11,West,270,0.0,0.0,60,0.00,,,0.00,WUHU21423XXSP,2013-05-31 15:00:00,
2013-05-31 11:06:00,86.5,71.1,30.11,NNW,337,0.0,0.0,60,0.00,,,0.00,WUHU21423XXSP,2013-05-31 15:06:00,
2013-05-31 11:12:00,86.9,70.4,30.10,SW,225,0.0,0.4,58,0.00,,,0.00,WUHU21423XXSP,2013-05-31 15:12:00,
2013-05-31 11:19:00,86.7,70.7,30.10,SSW,202,0.0,0.4,59,0.00,,,0.00,WUHU21423XXSP,2013-05-31 15:19:00,
2013-05-31 11:25:00,86.2,69.1,30.10,SE,135,0.0,0.0,57,0.00,,,0.00,WUHU21423XXSP,2013-05-31 15:25:00,
2013-05-31 11:32:00,86.4,69.8,30.10,WSW,247,0.0,0.0,58,0.00,,,0.00,WUHU21423XXSP,2013-05-31 15:32:00,
2013-05-31 11:38:00,85.6,68.6,30.10,SW,225,0.0,0.0,57,0.00,,,0.00,WUHU21423XXSP,2013-05-31 15:38:00,
2013-05-31 11:45:00,86.4,69.8,30.10,SW,225,0.0,0.0,58,0.00,,,0.00,WUHU21423XXSP,2013-05-31 15:45:00,
2013-05-31 11:51:00,87.4,70.9,30.10,South,180,0.0,0.0,57,0.00,,,0.00,WUHU21423XXSP,2013-05-31 15:51:00,
2013-05-31 11:57:00,86.7,70.2,30.10,SE,135,0.0,0.0,58,0.00,,,0.00,WUHU21423XXSP,2013-05-31 15:57:00,
2013-05-31 12:04:00,86.7,69.1,30.10,West,270,0.0,0.0,56,0.00,,,0.00,WUHU21423XXSP,2013-05-31 16:04:00,
2013-05-31 12:10:00,87.8,72.3,30.10,SSE,157,0.0,0.0,60,0.00,,,0.00,WUHU21423XXSP,2013-05-31 16:10:00,
2013-05-31 12:17:00,87.8,70.7,30.10,North,0,0.0,0.0,57,0.00,,,0.00,WUHU21423XXSP,2013-05-31 16:17:00,
2013-05-31 12:23:00,86.9,70.0,30.10,WNW,292,0.0,2.0,58,0.00,,,0.00,WUHU21423XXSP,2013-05-31 16:23:00,
2013-05-31 12:29:00,86.9,69.6,30.10,West,270,0.0,0.0,57,0.00,,,0.00,WUHU21423XXSP,2013-05-31 16:29:00,
2013-05-31 12:36:00,87.4,70.3,30.10,SW,225,0.0,0.0,57,0.00,,,0.00,WUHU21423XXSP,2013-05-31 16:36:00,
2013-05-31 12:42:00,87.4,70.0,30.09,SW,225,0.0,2.9,58,0.00,,,0.00,WUHU21423XXSP,2013-05-31 16:42:00,
2013-05-31 12:49:00,87.6,71.1,30.09,North,0,1.6,2.9,58,0.00,,,0.00,WUHU21423XXSP,2013-05-31 16:49:00,
2013-05-31 12:55:00,88.2,71.0,30.09,WNW,292,6.9,6.9,57,0.00,,,0.00,WUHU21423XXSP,2013-05-31 16:55:00,
2013-05-31 13:02:00,87.1,69.8,30.09,WSW,247,0.0,6.9,54,0.00,,,0.00,WUHU21423XXSP,2013-05-31 17:02:00,
2013-05-31 13:08:00,88.2,69.9,30.09,WNW,292,4.0,4.0,55,0.00,,,0.00,WUHU21423XXSP,2013-05-31 17:08:00,
2013-05-31 13:14:00,88.3,70.1,30.08,ESE,112,0.0,4.0,55,0.00,,,0.00,WUHU21423XXSP,2013-05-31 17:14:00,
2013-05-31 13:21:00,89.2,70.9,30.08,East,90,0.0,0.0,55,0.00,,,0.00,WUHU21423XXSP,2013-05-31 17:21:00,
2013-05-31 13:27:00,89.4,71.1,30.08,West,270,4.3,4.3,55,0.00,,,0.00,WUHU21423XXSP,2013-05-31 17:27:00,
2013-05-31 13:34:00,89.4,68.9,30.08,SSE,157,0.0,4.3,54,0.00,,,0.00,WUHU21423XXSP,2013-05-31 17:34:00,
2013-05-31 13:40:00,90.0,70.5,30.08,NW,315,0.0,0.0,53,0.00,,,0.00,WUHU21423XXSP,2013-05-31 17:40:00,
2013-05-31 13:47:00,89.2,69.3,30.08,NW,315,0.0,1.1,52,0.00,,,0.00,WUHU21423XXSP,2013-05-31 17:47:00,
2013-05-31 13:53:00,87.6,69.6,30.08,NE,45,0.0,0.0,54,0.00,,,0.00,WUHU21423XXSP,2013-05-31 17:53:00,
2013-05-31 13:59:00,88.7,71.6,30.08,NE,45,0.0,0.0,56,0.00,,,0.00,WUHU21423XXSP,2013-05-31 17:59:00,
2013-05-31 14:06:00,89.1,70.1,30.07,WNW,292,0.0,0.0,54,0.00,,,0.00,WUHU21423XXSP,2013-05-31 18:06:00,
2013-05-31 14:12:00,88.9,71.1,30.08,SSW,202,0.0,1.3,56,0.00,,,0.00,WUHU21423XXSP,2013-05-31 18:12:00,
2013-05-31 14:19:00,89.1,71.5,30.07,NW,315,4.5,4.5,55,0.00,,,0.00,WUHU21423XXSP,2013-05-31 18:19:00,
2013-05-31 14:25:00,89.8,71.4,30.07,SSW,202,2.5,4.5,55,0.00,,,0.00,WUHU21423XXSP,2013-05-31 18:25:00,
2013-05-31 14:32:00,89.2,70.4,30.07,WSW,247,0.0,5.8,54,0.00,,,0.00,WUHU21423XXSP,2013-05-31 18:32:00,
2013-05-31 14:38:00,89.8,70.3,30.07,South,180,0.0,5.8,53,0.00,,,0.00,WUHU21423XXSP,2013-05-31 18:38:00,
2013-05-31 14:44:00,90.0,70.5,30.07,SSE,157,0.0,0.0,53,0.00,,,0.00,WUHU21423XXSP,2013-05-31 18:44:00,
2013-05-31 14:51:00,89.8,70.5,30.06,East,90,0.0,0.7,52,0.00,,,0.00,WUHU21423XXSP,2013-05-31 18:51:00,
2013-05-31 14:57:00,89.4,69.8,30.06,ENE,67,0.0,0.0,52,0.00,,,0.00,WUHU21423XXSP,2013-05-31 18:57:00,
2013-05-31 15:04:00,89.8,70.9,30.06,ENE,67,0.0,0.0,54,0.00,,,0.00,WUHU21423XXSP,2013-05-31 19:04:00,
2013-05-31 15:10:00,89.4,68.4,30.06,SW,225,3.8,3.8,50,0.00,,,0.00,WUHU21423XXSP,2013-05-31 19:10:00,
2013-05-31 15:16:00,88.7,69.2,30.06,SW,225,0.0,3.8,53,0.00,,,0.00,WUHU21423XXSP,2013-05-31 19:16:00,
2013-05-31 15:23:00,88.5,69.7,30.05,South,180,0.0,0.0,54,0.00,,,0.00,WUHU21423XXSP,2013-05-31 19:23:00,
2013-05-31 15:29:00,88.0,69.0,30.06,WNW,292,2.2,2.2,53,0.00,,,0.00,WUHU21423XXSP,2013-05-31 19:29:00,
2013-05-31 15:36:00,88.5,70.5,30.05,SW,225,0.0,2.2,57,0.00,,,0.00,WUHU21423XXSP,2013-05-31 19:36:00,
2013-05-31 15:42:00,89.4,70.5,30.05,NNW,337,0.0,0.9,54,0.00,,,0.00,WUHU21423XXSP,2013-05-31 19:42:00,
2013-05-31 15:49:00,89.8,70.3,30.05,West,270,0.0,0.9,53,0.00,,,0.00,WUHU21423XXSP,2013-05-31 19:49:00,
2013-05-31 15:55:00,90.1,70.6,30.05,SSE,157,0.0,0.0,53,0.00,,,0.00,WUHU21423XXSP,2013-05-31 19:55:00,
2013-05-31 16:01:00,90.1,71.2,30.04,NW,315,0.0,0.0,54,0.00,,,0.00,WUHU21423XXSP,2013-05-31 20:01:00,
2013-05-31 16:08:00,90.1,71.2,30.04,NNE,22,0.0,0.0,54,0.00,,,0.00,WUHU21423XXSP,2013-05-31 20:08:00,
2013-05-31 16:14:00,88.0,69.8,30.04,SW,225,0.0,0.0,55,0.00,,,0.00,WUHU21423XXSP,2013-05-31 20:14:00,
2013-05-31 16:21:00,87.1,70.5,30.03,South,180,0.0,0.0,58,0.00,,,0.00,WUHU21423XXSP,2013-05-31 20:21:00,
2013-05-31 16:27:00,85.8,69.6,30.03,South,180,0.0,0.0,58,0.00,,,0.00,WUHU21423XXSP,2013-05-31 20:27:00,
2013-05-31 16:33:00,87.1,70.5,30.03,NE,45,0.0,0.0,58,0.00,,,0.00,WUHU21423XXSP,2013-05-31 20:33:00,
2013-05-31 16:40:00,86.9,70.4,30.02,SSE,157,0.0,0.0,58,0.00,,,0.00,WUHU21423XXSP,2013-05-31 20:40:00,
2013-05-31 16:46:00,87.4,70.3,30.02,ENE,67,0.0,1.3,57,0.00,,,0.00,WUHU21423XXSP,2013-05-31 20:46:00,
2013-05-31 16:53:00,86.7,70.4,30.02,East,90,0.0,0.0,58,0.00,,,0.00,WUHU21423XXSP,2013-05-31 20:53:00,
2013-05-31 16:59:00,87.1,69.5,30.02,ENE,67,0.0,0.0,56,0.00,,,0.00,WUHU21423XXSP,2013-05-31 20:59:00,
2013-05-31 17:06:00,87.6,70.0,30.02,ENE,67,0.0,0.0,56,0.00,,,0.00,WUHU21423XXSP,2013-05-31 21:06:00,
2013-05-31 17:12:00,88.5,70.8,30.02,NW,315,0.0,0.0,56,0.00,,,0.00,WUHU21423XXSP,2013-05-31 21:12:00,
2013-05-31 17:18:00,88.3,70.1,30.02,East,90,0.0,1.8,55,0.00,,,0.00,WUHU21423XXSP,2013-05-31 21:18:00,
2013-05-31 17:25:00,88.5,71.3,30.01,North,0,0.0,1.8,57,0.00,,,0.00,WUHU21423XXSP,2013-05-31 21:25:00,
2013-05-31 17:31:00,87.8,70.2,30.02,East,90,0.0,3.1,56,0.00,,,0.00,WUHU21423XXSP,2013-05-31 21:31:00,
2013-05-31 17:38:00,87.6,70.5,30.01,East,90,0.0,3.1,57,0.00,,,0.00,WUHU21423XXSP,2013-05-31 21:38:00,
2013-05-31 17:44:00,86.7,69.6,30.01,ENE,67,0.0,0.0,57,0.00,,,0.00,WUHU21423XXSP,2013-05-31 21:44:00,
2013-05-31 17:51:00,87.1,70.0,30.01,North,0,0.0,0.0,57,0.00,,,0.00,WUHU21423XXSP,2013-05-31 21:51:00,
2013-05-31 17:57:00,86.4,69.8,30.01,ESE,112,0.0,1.1,58,0.00,,,0.00,WUHU21423XXSP,2013-05-31 21:57:00,
2013-05-31 18:03:00,86.2,69.6,30.01,ENE,67,0.0,0.0,58,0.00,,,0.00,WUHU21423XXSP,2013-05-31 22:03:00,
2013-05-31 18:10:00,86.2,69.6,30.01,ENE,67,0.0,0.0,58,0.00,,,0.00,WUHU21423XXSP,2013-05-31 22:10:00,
2013-05-31 18:16:00,85.3,69.0,30.01,ENE,67,0.0,0.0,58,0.00,,,0.00,WUHU21423XXSP,2013-05-31 22:16:00,
2013-05-31 18:23:00,84.4,68.5,30.01,SE,135,0.0,0.0,59,0.00,,,0.00,WUHU21423XXSP,2013-05-31 22:23:00,
2013-05-31 18:29:00,83.5,68.2,30.01,NNE,22,0.0,0.0,60,0.00,,,0.00,WUHU21423XXSP,2013-05-31 22:29:00,
2013-05-31 18:36:00,83.1,68.0,30.01,NNE,22,0.0,0.0,61,0.00,,,0.00,WUHU21423XXSP,2013-05-31 22:36:00,
2013-05-31 18:42:00,82.9,68.1,30.01,SE,135,0.0,0.0,61,0.00,,,0.00,WUHU21423XXSP,2013-05-31 22:42:00,
2013-05-31 18:48:00,82.6,68.1,30.01,ESE,112,0.0,0.0,61,0.00,,,0.00,WUHU21423XXSP,2013-05-31 22:48:00,
2013-05-31 18:55:00,82.2,67.7,30.01,SE,135,0.0,0.0,61,0.00,,,0.00,WUHU21423XXSP,2013-05-31 22:55:00,
2013-05-31 19:01:00,82.2,67.4,30.01,WNW,292,0.0,0.0,61,0.00,,,0.00,WUHU21423XXSP,2013-05-31 23:01:00,
2013-05-31 19:08:00,81.7,66.9,30.01,ESE,112,0.0,0.0,61,0.00,,,0.00,WUHU21423XXSP,2013-05-31 23:08:00,
2013-05-31 19:14:00,81.3,66.6,30.01,East,90,0.0,0.0,61,0.00,,,0.00,WUHU21423XXSP,2013-05-31 23:14:00,
2013-05-31 19:20:00,81.0,66.7,30.01,ENE,67,0.0,0.0,62,0.00,,,0.00,WUHU21423XXSP,2013-05-31 23:20:00,
2013-05-31 19:27:00,80.6,66.4,30.01,East,90,0.0,0.0,62,0.00,,,0.00,WUHU21423XXSP,2013-05-31 23:27:00,
2013-05-31 19:33:00,80.1,66.0,30.01,ESE,112,0.0,1.6,62,0.00,,,0.00,WUHU21423XXSP,2013-05-31 23:33:00,
2013-05-31 19:40:00,79.7,65.6,30.01,ESE,112,0.0,0.0,62,0.00,,,0.00,WUHU21423XXSP,2013-05-31 23:40:00,
2013-05-31 19:46:00,79.7,66.0,30.01,SSE,157,0.0,0.0,63,0.00,,,0.00,WUHU21423XXSP,2013-05-31 23:46:00,
2013-05-31 19:53:00,79.3,65.6,30.02,SSE,157,0.0,0.0,63,0.00,,,0.00,WUHU21423XXSP,2013-05-31 23:53:00,
2013-05-31 19:59:00,78.6,65.0,30.02,NE,45,0.0,0.0,63,0.00,,,0.00,WUHU21423XXSP,2013-05-31 23:59:00,
2013-05-31 20:05:00,78.4,64.8,30.02,ESE,112,0.0,0.0,63,0.00,,,0.00,WUHU21423XXSP,2013-06-01 00:05:00,
2013-05-31 20:12:00,78.1,64.5,30.02,East,90,0.0,0.0,63,0.00,,,0.00,WUHU21423XXSP,2013-06-01 00:12:00,
2013-05-31 20:18:00,78.1,64.5,30.02,WSW,247,0.0,0.0,63,0.00,,,0.00,WUHU21423XXSP,2013-06-01 00:18:00,
2013-05-31 20:25:00,77.7,64.1,30.02,WNW,292,0.0,0.0,63,0.00,,,0.00,WUHU21423XXSP,2013-06-01 00:25:00,
2013-05-31 20:31:00,77.5,63.9,30.02,WNW,292,0.0,0.0,63,0.00,,,0.00,WUHU21423XXSP,2013-06-01 00:31:00,
2013-05-31 20:38:00,77.7,64.1,30.02,WNW,292,0.0,0.0,63,0.00,,,0.00,WUHU21423XXSP,2013-06-01 00:38:00,
2013-05-31 20:44:00,77.7,64.1,30.02,WNW,292,0.0,0.0,63,0.00,,,0.00,WUHU21423XXSP,2013-06-01 00:44:00,
2013-05-31 20:50:00,77.5,63.9,30.02,West,270,0.0,0.0,63,0.00,,,0.00,WUHU21423XXSP,2013-06-01 00:50:00,
2013-05-31 20:57:00,77.4,63.8,30.02,West,270,0.0,0.0,63,0.00,,,0.00,WUHU21423XXSP,2013-06-01 00:57:00,
2013-05-31 21:03:00,77.2,63.6,30.02,North,0,0.0,0.0,63,0.00,,,0.00,WUHU21423XXSP,2013-06-01 01:03:00,
2013-05-31 21:10:00,76.8,63.2,30.02,NNW,337,0.0,0.0,63,0.00,,,0.00,WUHU21423XXSP,2013-06-01 01:10:00,
2013-05-31 21:16:00,76.3,62.7,30.02,NNW,337,0.0,0.0,63,0.00,,,0.00,WUHU21423XXSP,2013-06-01 01:16:00,
2013-05-31 21:23:00,75.9,62.6,30.02,NNW,337,0.0,0.0,63,0.00,,,0.00,WUHU21423XXSP,2013-06-01 01:23:00,
2013-05-31 21:29:00,75.6,62.1,30.02,NNW,337,0.0,0.0,63,0.00,,,0.00,WUHU21423XXSP,2013-06-01 01:29:00,
2013-05-31 21:35:00,75.0,61.6,30.03,NNW,337,0.0,0.0,63,0.00,,,0.00,WUHU21423XXSP,2013-06-01 01:35:00,
2013-05-31 21:42:00,74.5,61.0,30.03,NNW,337,0.0,0.0,63,0.00,,,0.00,WUHU21423XXSP,2013-06-01 01:42:00,
2013-05-31 21:48:00,73.9,60.5,30.03,NNW,337,0.0,0.0,63,0.00,,,0.00,WUHU21423XXSP,2013-06-01 01:48:00,
2013-05-31 21:55:00,73.2,59.5,30.03,NNW,337,0.0,0.0,62,0.00,,,0.00,WUHU21423XXSP,2013-06-01 01:55:00,
2013-05-31 22:01:00,72.9,58.6,30.03,NNW,337,0.0,0.0,61,0.00,,,0.00,WUHU21423XXSP,2013-06-01 02:01:00,
2013-05-31 22:07:00,72.3,58.1,30.04,NNW,337,0.0,0.0,61,0.00,,,0.00,WUHU21423XXSP,2013-06-01 02:07:00,
2013-05-31 22:14:00,72.0,57.3,30.04,NNW,337,0.0,0.0,60,0.00,,,0.00,WUHU21423XXSP,2013-06-01 02:14:00,
2013-05-31 22:20:00,71.8,56.7,30.04,NNW,337,0.0,0.0,59,0.00,,,0.00,WUHU21423XXSP,2013-06-01 02:20:00,
2013-05-31 22:27:00,71.2,56.2,30.04,NNW,337,0.0,0.0,59,0.00,,,0.00,WUHU21423XXSP,2013-06-01 02:27:00,
2013-05-31 22:33:00,70.7,55.2,30.04,NNW,337,0.0,0.0,58,0.00,,,0.00,WUHU21423XXSP,2013-06-01 02:33:00,
2013-05-31 22:40:00,70.3,55.0,30.04,NNW,337,0.0,0.0,58,0.00,,,0.00,WUHU21423XXSP,2013-06-01 02:40:00,
2013-05-31 22:46:00,70.3,54.4,30.04,NNW,337,0.0,0.0,57,0.00,,,0.00,WUHU21423XXSP,2013-06-01 02:46:00,
2013-05-31 22:52:00,70.2,53.9,30.04,NNW,337,0.0,0.0,56,0.00,,,0.00,WUHU21423XXSP,2013-06-01 02:52:00,
2013-05-31 22:59:00,70.0,53.5,30.03,NNW,337,0.0,0.0,55,0.00,,,0.00,WUHU21423XXSP,2013-06-01 02:59:00,
2013-05-31 23:05:00,70.2,53.7,30.03,NNW,337,0.0,0.0,56,0.00,,,0.00,WUHU21423XXSP,2013-06-01 03:05:00,
2013-05-31 23:12:00,69.8,53.5,30.03,NNW,337,0.0,0.0,56,0.00,,,0.00,WUHU21423XXSP,2013-06-01 03:12:00,
2013-05-31 23:18:00,69.6,52.9,30.03,NNW,337,0.0,0.0,55,0.00,,,0.00,WUHU21423XXSP,2013-06-01 03:18:00,
2013-05-31 23:25:00,69.4,52.7,30.02,NNW,337,0.0,0.0,55,0.00,,,0.00,WUHU21423XXSP,2013-06-01 03:25:00,
2013-05-31 23:31:00,69.1,51.7,30.02,NNW,337,0.0,0.0,54,0.00,,,0.00,WUHU21423XXSP,2013-06-01 03:31:00,
2013-05-31 23:37:00,68.7,51.5,30.02,NNW,337,0.0,0.0,54,0.00,,,0.00,WUHU21423XXSP,2013-06-01 03:37:00,
2013-05-31 23:44:00,68.5,50.7,30.02,NNW,337,0.0,0.0,53,0.00,,,0.00,WUHU21423XXSP,2013-06-01 03:44:00,
2013-05-31 23:50:00,67.8,49.5,30.02,NNW,337,0.0,0.0,52,0.00,,,0.00,WUHU21423XXSP,2013-06-01 03:50:00,
2013-05-31 23:57:00,67.3,49.1,30.02,NNW,337,0.0,0.0,52,0.00,,,0.00,WUHU21423XXSP,2013-06-01 03:57:00,